Airfield :
LOGIN :

Register | Disclaimer

   EN    FR    IT 

 










Legend :    VFR   Marginal VFR   IFR   Intensive IFR   Very Intensive IFR
Visi :
Ceiling :
>= 8 km
>= 3000ft
5 to 8 km
1000 to 3000 ft
1500m to 5 km
500 to 1000 ft
800 to 1500m
200 to 500 ft
< 800m
< 200 ft
Symbols :   Thunderstorms  Fog  Heavy snow  Heavy precipitations  Wind > 20 kt
SIGMETs :     Misc.  Thunderstorms  Icing  Turbulence  Mountain Waves  Volcanic Ashes







- Airport Elevation : 144 ft
- IATA code : PGF
- Download approach charts


LFMP - Perpignan

CURRENT METAR :
  • 150800Z AUTO VRB02KT 9999 NCD 22/18 Q1024 NOSIG

EXPIRED METARs :
  • 150730Z AUTO VRB01KT CAVOK 20/18 Q1024 NOSIG
  • 150700Z AUTO 01002KT CAVOK 19/18 Q1024 BECMG 07010KT
  • 150630Z AUTO VRB02KT CAVOK 18/17 Q1024 NOSIG
  • 150600Z AUTO 23004KT 9000 NSC 18/17 Q1024 NOSIG
  • 150530Z AUTO VRB02KT 5000 BR NSC 18/17 Q1024 NOSIG
  • 150500Z AUTO 36002KT 5000 BR NSC 18/18 Q1023 NOSIG

TAF AMD TAF LFMP
Valid from the 15 at 04:00 until the 16 at 03:00 UTC


150433Z 1504/1603 33004KT 9999 FEW080 BKN150
PROB40
TEMPO 1504/1505 TSRA SCT050CB SCT070 BKN100
BECMG 1508/1510 07010KT
TEMPO 1512/1516 FEW060CB
BECMG 1522/1524 33004KT
ATIS : +33 4 68 63 75 12
No reported NOTAMs for that airfield.



MET'MAP, your aeronautical weather chart ! - Copyright ORBIFLY December 2007 - Disclaimer

ORBIFLY MET'MAP TEAM :

Programming & Development : Alexandra Zaïnal
Concept & Development : Baudouin d'Aumeries
Co-Development & Prog : Marc-Olivier Méhu
Technical & hardware support : Manuel Goepfert

Contact : metmap@orbifly.com




SOURCES & CREDITS :

   NOAA